Weather at Vienna International Airport

Public forecast

Using degrees Celsius for public forecast. Weather courtesy of forecast.io.

Current aviation weather report (METAR) for Vienna International Airport

Retrieved 2021/01/23 10:20 UTC (0 seconds ago):

LOWW 231020Z 28019KT 9999 -SHRA FEW025 BKN035 05/00 Q0998 NOSIG

Aviation forecast (TAF) for Vienna International Airport

Retrieved 2021/01/23 09:18 UTC (53 minutes ago):

TAF TAF COR LOWW 230815Z 2309/2415 28012G25KT 9999 BKN030 TX08/2309Z TN01/2407Z TEMPO 2309/2312 SHRA TEMPO 2312/2319 32006KT -RA FM231900 32004KT 9000 -RA BKN015 BECMG 2323/2401 2500 -SN FEW003 BKN010 TEMPO 2405/2408 VRB02KT 1500 BCFG BKN003 BECMG 2408/2410 6000 NSW FEW010 SCT050 FM241100 29012KT CAVOK